Time;durP1;ratioP1;P1;durP2;ratioP2;P2;SDS_P1;SDS_P2;PMS_P1;PMS_P2;Temp;Humidity;BMP_temperature;BMP_pressure;BME280_temperature;BME280_humidity;BME280_pressure;Samples;Min_cycle;Max_cycle;Signal;HPM_P1;HPM_P2
2021/12/06 00:02:14;;;;;;;49.63;27.13;;;2.30;99.90;;;;;;4997572;28;20046;-66
2021/12/06 00:04:40;;;;;;;46.47;27.15;;;2.20;99.90;;;;;;4997566;28;20093;-66
2021/12/06 00:07:12;;;;;;;50.47;27.88;;;2.20;99.90;;;;;;4980993;28;20050;-65
2021/12/06 00:09:38;;;;;;;49.78;27.95;;;2.30;99.90;;;;;;4997685;28;20363;-66
2021/12/06 00:12:04;;;;;;;53.05;29.63;;;2.20;99.90;;;;;;4997429;28;20054;-66
2021/12/06 00:14:34;;;;;;;56.92;30.80;;;2.30;99.90;;;;;;5016506;28;20108;-66
2021/12/06 00:17:03;;;;;;;53.95;30.52;;;2.20;99.90;;;;;;5000344;28;20050;-66
2021/12/06 00:19:29;;;;;;;53.90;29.02;;;2.20;99.90;;;;;;4999659;28;20057;-66
2021/12/06 00:21:56;;;;;;;55.35;31.25;;;2.20;99.90;;;;;;5000092;28;20125;-67
2021/12/06 00:24:22;;;;;;;61.03;32.25;;;2.20;99.90;;;;;;4999654;28;20054;-67
2021/12/06 00:26:48;;;;;;;56.67;31.33;;;2.20;99.90;;;;;;5016995;28;20046;-66
2021/12/06 00:29:13;;;;;;;54.03;30.75;;;2.20;99.90;;;;;;4999475;28;20108;-67
2021/12/06 00:31:39;;;;;;;58.85;32.30;;;2.20;99.90;;;;;;5016818;28;20054;-66
2021/12/06 00:34:11;;;;;;;57.85;29.77;;;2.20;99.90;;;;;;4999231;28;20085;-65
2021/12/06 00:36:40;;;;;;;58.47;32.40;;;2.30;99.90;;;;;;5016418;28;20042;-66
2021/12/06 00:39:11;;;;;;;60.45;32.13;;;2.30;99.90;;;;;;5016619;28;20054;-66
2021/12/06 00:41:37;;;;;;;65.43;32.30;;;2.30;99.90;;;;;;5016718;28;20354;-66
2021/12/06 00:44:04;;;;;;;57.33;29.90;;;2.20;99.90;;;;;;4983825;28;20042;-66
2021/12/06 00:46:30;;;;;;;59.08;30.38;;;2.20;99.90;;;;;;4996877;28;20329;-64
2021/12/06 00:48:55;;;;;;;60.28;32.08;;;2.20;99.90;;;;;;4979643;28;20156;-65
2021/12/06 00:51:21;;;;;;;61.35;31.85;;;2.20;99.90;;;;;;4979588;28;20422;-64
2021/12/06 00:53:47;;;;;;;61.22;31.05;;;2.20;99.90;;;;;;4963430;28;20054;-66
2021/12/06 00:56:12;;;;;;;60.75;31.00;;;2.20;99.90;;;;;;4979122;28;20467;-66
2021/12/06 00:58:39;;;;;;;61.17;30.73;;;2.30;99.90;;;;;;4979891;28;20345;-66
2021/12/06 01:01:08;;;;;;;56.45;29.95;;;2.20;99.90;;;;;;4979600;28;20050;-65
2021/12/06 01:03:35;;;;;;;62.13;31.65;;;2.20;99.90;;;;;;4979340;28;20053;-66
2021/12/06 01:06:02;;;;;;;61.00;31.05;;;2.20;99.90;;;;;;4979271;28;20120;-65
2021/12/06 01:08:28;;;;;;;63.10;31.05;;;2.20;99.90;;;;;;4979370;28;20050;-66
2021/12/06 01:10:55;;;;;;;58.78;30.52;;;2.20;99.90;;;;;;4979192;28;20060;-66
2021/12/06 01:13:21;;;;;;;64.97;31.05;;;2.20;99.90;;;;;;5007676;28;20057;-64
2021/12/06 01:15:47;;;;;;;66.47;33.70;;;2.20;99.90;;;;;;5016146;28;20046;-64
2021/12/06 01:18:16;;;;;;;65.53;33.33;;;2.20;99.90;;;;;;5015963;28;20052;-66
2021/12/06 01:20:51;;;;;;;61.72;31.20;;;2.20;99.90;;;;;;4998838;28;20041;-66
2021/12/06 01:23:19;;;;;;;69.10;33.15;;;2.20;99.90;;;;;;5015673;28;20104;-65
2021/12/06 01:33:52;;;;;;;64.18;32.50;;;2.20;99.90;;;;;;4998477;28;20137;-65
2021/12/06 01:39:18;;;;;;;62.05;31.45;;;2.20;99.90;;;;;;4998248;28;20125;-66
2021/12/06 01:41:51;;;;;;;63.45;32.83;;;2.30;99.90;;;;;;4998365;28;20054;-67
2021/12/06 01:44:21;;;;;;;67.55;33.70;;;2.30;99.90;;;;;;4978394;28;20078;-64
2021/12/06 01:46:54;;;;;;;60.70;31.20;;;2.30;99.90;;;;;;4962897;28;20055;-65
2021/12/06 01:49:23;;;;;;;65.22;32.97;;;2.30;99.90;;;;;;4978366;28;20054;-66
2021/12/06 01:51:51;;;;;;;59.55;32.42;;;2.30;99.90;;;;;;4995738;28;20050;-65
2021/12/06 01:54:18;;;;;;;66.05;33.00;;;2.30;99.90;;;;;;4995909;28;20056;-66
2021/12/06 01:56:44;;;;;;;72.07;34.92;;;2.30;99.90;;;;;;4978474;28;20054;-66
2021/12/06 01:59:11;;;;;;;68.00;34.08;;;2.40;99.90;;;;;;4995530;28;20057;-64
2021/12/06 02:01:37;;;;;;;70.32;33.20;;;2.30;99.90;;;;;;4978578;28;20462;-66
2021/12/06 02:04:04;;;;;;;69.20;34.53;;;2.30;99.90;;;;;;4995857;28;20129;-65
2021/12/06 02:06:30;;;;;;;72.13;33.95;;;2.40;99.90;;;;;;4995748;28;20041;-65
2021/12/06 02:08:56;;;;;;;70.72;35.17;;;2.40;99.90;;;;;;4978551;28;20046;-65
2021/12/06 02:11:24;;;;;;;67.85;35.65;;;2.40;99.90;;;;;;4978353;28;20340;-65
2021/12/06 02:14:06;;;;;;;74.43;34.60;;;2.40;99.90;;;;;;4994996;28;20054;-65
2021/12/06 02:16:55;;;;;;;74.40;36.10;;;2.40;99.90;;;;;;5000386;28;20050;-67
2021/12/06 02:19:19;;;;;;;74.47;35.28;;;2.70;99.90;;;;;;5001318;28;20068;-65
2021/12/06 02:21:45;;;;;;;74.60;36.83;;;2.40;99.90;;;;;;5001503;28;20057;-65
2021/12/06 02:24:11;;;;;;;81.40;36.17;;;2.40;99.90;;;;;;5002230;28;20080;-67
2021/12/06 02:26:42;;;;;;;74.68;35.28;;;2.30;99.90;;;;;;5019056;28;20462;-66
2021/12/06 02:29:09;;;;;;;78.65;36.17;;;2.40;99.90;;;;;;5001430;28;20108;-66
2021/12/06 02:31:36;;;;;;;74.35;36.03;;;2.40;99.90;;;;;;5019012;28;20053;-66
2021/12/06 02:34:02;;;;;;;75.82;37.03;;;2.40;99.90;;;;;;5001745;28;20046;-66
2021/12/06 02:36:28;;;;;;;66.95;33.50;;;2.40;99.90;;;;;;5001154;28;20041;-65
2021/12/06 02:38:54;;;;;;;74.00;36.05;;;2.40;99.90;;;;;;4999634;28;20466;-67
2021/12/06 02:41:21;;;;;;;65.22;32.45;;;2.40;99.90;;;;;;5018602;28;20050;-67
2021/12/06 02:43:48;;;;;;;71.78;34.03;;;2.40;99.90;;;;;;4985379;28;20046;-67
2021/12/06 02:46:14;;;;;;;73.55;35.30;;;2.40;99.90;;;;;;5001769;28;20057;-65
2021/12/06 02:48:40;;;;;;;69.75;36.25;;;2.40;99.90;;;;;;5001211;28;20459;-66
2021/12/06 02:51:07;;;;;;;70.75;34.45;;;2.40;99.90;;;;;;5001231;28;20057;-65
2021/12/06 02:53:36;;;;;;;71.32;34.22;;;2.40;99.90;;;;;;5001872;28;20148;-66
2021/12/06 02:56:06;;;;;;;65.13;33.03;;;2.40;99.90;;;;;;5018585;28;20117;-66
2021/12/06 03:01:09;;;;;;;67.68;33.10;;;2.40;99.90;;;;;;5001158;28;20056;-66
2021/12/06 03:03:36;;;;;;;63.45;30.42;;;2.40;99.90;;;;;;5001148;28;20078;-64
2021/12/06 03:06:02;;;;;;;65.05;33.40;;;2.40;99.90;;;;;;5000607;28;20375;-64
2021/12/06 03:08:39;;;;;;;64.13;32.55;;;2.40;99.90;;;;;;5004055;28;20054;-64
2021/12/06 03:11:11;;;;;;;64.38;32.78;;;2.40;99.90;;;;;;5001082;28;20064;-66
2021/12/06 03:13:37;;;;;;;61.40;32.33;;;2.40;99.90;;;;;;5001034;28;20116;-66
2021/12/06 03:16:03;;;;;;;65.10;32.00;;;2.40;99.90;;;;;;5018129;28;20049;-65
2021/12/06 03:18:29;;;;;;;65.88;31.50;;;2.40;99.90;;;;;;5017795;28;20042;-65
2021/12/06 03:20:55;;;;;;;59.65;31.27;;;2.40;99.90;;;;;;5018312;28;20095;-65
2021/12/06 03:23:20;;;;;;;65.00;32.50;;;2.50;99.90;;;;;;5017928;28;20045;-67
2021/12/06 03:25:46;;;;;;;67.40;31.42;;;2.40;99.90;;;;;;5000630;28;20061;-65
2021/12/06 03:28:11;;;;;;;63.45;30.80;;;2.50;99.90;;;;;;5017506;28;20470;-66
2021/12/06 03:30:38;;;;;;;64.18;30.40;;;2.50;99.90;;;;;;5017856;28;20488;-66
2021/12/06 03:33:04;;;;;;;65.55;31.95;;;2.50;99.90;;;;;;5000659;28;20128;-65
2021/12/06 03:35:30;;;;;;;63.05;31.70;;;2.50;99.90;;;;;;5017676;28;20406;-66
2021/12/06 03:37:55;;;;;;;61.35;29.58;;;2.40;99.90;;;;;;4988686;28;20050;-65
2021/12/06 03:40:21;;;;;;;66.18;31.77;;;2.50;99.90;;;;;;4996308;28;20054;-66
2021/12/06 03:42:47;;;;;;;62.97;32.58;;;2.50;99.90;;;;;;5000537;28;20042;-64
2021/12/06 03:45:13;;;;;;;67.45;32.60;;;2.40;99.90;;;;;;5017699;28;20056;-65
2021/12/06 03:47:40;;;;;;;67.47;31.73;;;2.40;99.90;;;;;;5017483;28;20042;-67
2021/12/06 03:50:07;;;;;;;67.13;32.40;;;2.40;99.90;;;;;;5017647;28;20455;-66
2021/12/06 03:52:33;;;;;;;72.70;32.15;;;2.40;99.90;;;;;;5017586;28;20046;-64
2021/12/06 03:54:59;;;;;;;68.30;32.17;;;2.40;99.90;;;;;;5017900;28;20358;-66
2021/12/06 03:57:25;;;;;;;81.82;35.00;;;2.40;99.90;;;;;;5000087;28;20042;-66
2021/12/06 03:59:52;;;;;;;80.30;35.75;;;2.40;99.90;;;;;;5017283;28;20050;-66
2021/12/06 04:02:22;;;;;;;67.82;32.85;;;2.40;99.90;;;;;;5000165;28;20046;-66
2021/12/06 04:04:47;;;;;;;74.75;34.63;;;2.40;99.90;;;;;;5017254;28;20050;-66
2021/12/06 04:07:14;;;;;;;72.30;32.53;;;2.40;99.90;;;;;;4994648;28;20050;-65
2021/12/06 04:09:39;;;;;;;82.53;35.22;;;2.50;99.90;;;;;;4980950;28;20046;-66
2021/12/06 04:12:06;;;;;;;78.18;34.75;;;2.50;99.90;;;;;;4997555;28;20451;-66
2021/12/06 04:14:32;;;;;;;72.75;32.33;;;2.50;99.90;;;;;;4997468;28;20046;-66
2021/12/06 04:16:58;;;;;;;74.00;34.42;;;2.50;99.90;;;;;;4981075;28;20193;-66
2021/12/06 04:19:24;;;;;;;74.40;34.72;;;2.50;99.90;;;;;;4980286;28;20057;-67
2021/12/06 04:21:50;;;;;;;77.05;34.17;;;2.50;99.90;;;;;;4980210;28;20056;-66
2021/12/06 04:24:16;;;;;;;74.65;32.35;;;2.40;99.90;;;;;;4997339;28;20038;-65
2021/12/06 04:26:43;;;;;;;83.35;35.45;;;2.50;99.90;;;;;;4980130;28;20116;-66
2021/12/06 04:29:09;;;;;;;82.43;35.58;;;2.50;99.90;;;;;;4979500;28;20108;-66
2021/12/06 04:31:42;;;;;;;82.88;35.58;;;2.50;99.90;;;;;;4997326;28;20050;-65
2021/12/06 04:34:08;;;;;;;82.47;34.20;;;2.50;99.90;;;;;;4981046;28;20050;-66
2021/12/06 04:36:34;;;;;;;88.35;35.35;;;2.50;99.90;;;;;;4998955;28;20076;-66
2021/12/06 04:38:59;;;;;;;78.80;35.63;;;2.50;99.90;;;;;;4999008;28;20096;-65
2021/12/06 04:41:25;;;;;;;78.60;34.58;;;2.50;99.90;;;;;;4999047;28;20046;-66
2021/12/06 04:43:51;;;;;;;79.80;34.60;;;2.50;99.90;;;;;;4999358;28;20374;-66
2021/12/06 04:46:16;;;;;;;85.15;35.95;;;2.50;99.90;;;;;;4999313;28;20137;-67
2021/12/06 04:48:42;;;;;;;77.63;33.22;;;2.50;99.90;;;;;;5015827;28;20470;-65
2021/12/06 04:51:08;;;;;;;74.60;33.28;;;2.50;99.90;;;;;;4999421;28;20061;-67
2021/12/06 04:53:36;;;;;;;77.75;32.22;;;2.50;99.90;;;;;;5016347;28;20046;-64
2021/12/06 04:56:23;;;;;;;78.25;31.38;;;2.50;99.90;;;;;;4999069;28;20058;-65
2021/12/06 04:58:54;;;;;;;77.35;33.30;;;2.50;99.90;;;;;;5016806;28;20045;-66
2021/12/06 05:01:24;;;;;;;82.72;33.53;;;2.50;99.90;;;;;;5016190;28;20336;-65
2021/12/06 05:03:51;;;;;;;75.85;33.00;;;2.60;99.90;;;;;;5016096;28;20095;-64
2021/12/06 05:06:24;;;;;;;74.72;31.48;;;2.60;99.90;;;;;;4979980;28;20133;-65
2021/12/06 05:08:54;;;;;;;78.00;33.08;;;2.60;99.90;;;;;;4979274;28;20471;-65
2021/12/06 05:11:23;;;;;;;78.55;32.67;;;2.60;99.90;;;;;;4996202;28;20136;-64
2021/12/06 05:13:51;;;;;;;84.80;34.70;;;2.50;99.90;;;;;;4979724;28;20125;-65
2021/12/06 05:16:16;;;;;;;77.13;32.75;;;2.60;99.90;;;;;;4996444;28;20090;-66
2021/12/06 05:18:42;;;;;;;78.80;33.22;;;2.60;99.90;;;;;;4979111;28;20077;-65
2021/12/06 05:21:07;;;;;;;77.68;33.00;;;2.60;99.90;;;;;;4978794;28;20050;-66
2021/12/06 05:23:33;;;;;;;75.95;33.08;;;2.50;99.90;;;;;;4995896;28;20050;-65
2021/12/06 05:25:59;;;;;;;83.15;33.25;;;2.60;99.90;;;;;;4996097;28;20065;-66
2021/12/06 05:28:28;;;;;;;120.25;34.90;;;2.60;99.90;;;;;;4996424;28;20113;-66
2021/12/06 05:30:56;;;;;;;77.25;32.63;;;2.50;99.90;;;;;;4995859;28;20490;-66
2021/12/06 05:33:29;;;;;;;80.22;33.95;;;2.60;99.90;;;;;;4979281;28;20062;-65
2021/12/06 05:35:58;;;;;;;82.82;33.70;;;2.50;99.90;;;;;;5013349;28;20055;-66
2021/12/06 05:38:25;;;;;;;74.65;33.70;;;2.60;99.90;;;;;;4997871;28;20052;-66
2021/12/06 05:40:50;;;;;;;76.57;33.58;;;2.60;99.90;;;;;;4998418;28;20136;-66
2021/12/06 05:43:16;;;;;;;78.85;33.88;;;2.60;99.90;;;;;;4997978;28;20133;-67
2021/12/06 05:45:42;;;;;;;82.68;33.65;;;2.50;99.90;;;;;;5015508;28;20052;-66
2021/12/06 05:48:07;;;;;;;77.18;31.55;;;2.50;99.90;;;;;;4998451;28;20045;-65
2021/12/06 05:50:33;;;;;;;84.85;34.20;;;2.50;99.90;;;;;;4980861;28;20157;-65
2021/12/06 05:52:58;;;;;;;81.32;31.15;;;2.50;99.90;;;;;;4995703;28;20125;-66
2021/12/06 05:55:27;;;;;;;82.82;34.50;;;2.60;99.90;;;;;;4979117;28;20105;-66
2021/12/06 05:57:54;;;;;;;82.68;33.35;;;2.60;99.90;;;;;;4978386;28;20498;-65
2021/12/06 06:00:21;;;;;;;88.00;34.55;;;2.60;99.90;;;;;;4978456;28;20077;-65
2021/12/06 06:02:47;;;;;;;85.13;33.33;;;2.60;99.90;;;;;;4995677;28;20367;-65
2021/12/06 06:05:13;;;;;;;79.00;31.95;;;2.60;99.90;;;;;;4995240;28;20042;-64
2021/12/06 06:07:39;;;;;;;77.45;31.73;;;2.60;99.90;;;;;;4978335;28;20054;-65
2021/12/06 06:10:05;;;;;;;92.60;34.58;;;2.60;99.90;;;;;;4978262;28;20116;-66
2021/12/06 06:12:31;;;;;;;86.25;33.25;;;2.60;99.90;;;;;;4978886;28;20054;-65
2021/12/06 06:14:57;;;;;;;90.90;33.55;;;2.60;99.90;;;;;;4995717;28;20061;-65
2021/12/06 06:17:23;;;;;;;81.15;32.47;;;2.60;99.90;;;;;;4978655;28;20141;-66
2021/12/06 06:19:54;;;;;;;79.78;32.15;;;2.70;99.90;;;;;;4987351;28;20069;-66
2021/12/06 06:22:20;;;;;;;80.55;31.48;;;2.60;99.90;;;;;;5014838;28;20533;-66
2021/12/06 06:24:46;;;;;;;80.18;31.88;;;2.60;99.90;;;;;;4997700;28;20077;-66
2021/12/06 06:27:12;;;;;;;73.45;29.42;;;2.60;99.90;;;;;;4996266;28;20049;-66
2021/12/06 06:29:38;;;;;;;81.30;31.65;;;2.60;99.90;;;;;;4995382;28;20050;-67
2021/12/06 06:32:06;;;;;;;83.20;32.70;;;2.60;99.90;;;;;;4978105;28;20116;-64
2021/12/06 06:34:33;;;;;;;81.97;32.75;;;2.60;99.90;;;;;;4995637;28;20077;-66
2021/12/06 06:36:59;;;;;;;88.78;32.80;;;2.60;99.90;;;;;;4978055;28;20054;-65
2021/12/06 06:39:25;;;;;;;74.32;30.45;;;2.60;99.90;;;;;;4978790;28;20050;-66
2021/12/06 06:41:52;;;;;;;91.85;32.03;;;2.60;99.90;;;;;;4995468;28;20049;-66
2021/12/06 06:44:18;;;;;;;84.93;33.63;;;2.60;99.90;;;;;;4978266;28;20085;-66
2021/12/06 06:46:45;;;;;;;90.70;31.63;;;2.50;99.90;;;;;;4995166;28;20443;-67
2021/12/06 06:49:12;;;;;;;96.07;34.05;;;2.60;99.90;;;;;;4981192;28;20141;-66
2021/12/06 06:51:38;;;;;;;92.85;33.65;;;2.50;99.90;;;;;;4997814;28;20068;-65
2021/12/06 06:54:05;;;;;;;83.40;31.67;;;2.60;99.90;;;;;;5014659;28;20046;-65
2021/12/06 06:56:31;;;;;;;85.13;33.70;;;2.50;99.90;;;;;;4981548;28;20073;-64
2021/12/06 06:58:57;;;;;;;91.25;33.90;;;2.50;99.90;;;;;;4997698;28;20367;-65
2021/12/06 07:01:23;;;;;;;94.25;33.03;;;2.60;99.90;;;;;;4996943;28;20053;-65
2021/12/06 07:03:53;;;;;;;81.80;31.17;;;2.60;99.90;;;;;;4999826;28;20053;-66
2021/12/06 07:06:25;;;;;;;83.28;30.10;;;2.60;99.90;;;;;;5001660;28;20042;-65
2021/12/06 07:08:54;;;;;;;93.82;33.03;;;2.50;99.90;;;;;;5018396;28;20056;-66
2021/12/06 07:11:21;;;;;;;99.13;35.38;;;2.50;99.90;;;;;;5018244;28;20045;-65
2021/12/06 07:13:47;;;;;;;81.47;32.22;;;2.50;99.90;;;;;;5018084;28;20042;-67
2021/12/06 07:16:14;;;;;;;90.95;34.25;;;2.50;99.90;;;;;;5000863;28;20051;-66
2021/12/06 07:18:40;;;;;;;87.90;32.35;;;2.50;99.90;;;;;;4998900;28;20058;-64
2021/12/06 07:21:06;;;;;;;94.45;33.97;;;2.50;99.90;;;;;;4998420;28;20136;-66
2021/12/06 07:23:38;;;;;;;97.00;32.42;;;2.60;99.90;;;;;;4998377;28;20507;-67
2021/12/06 07:26:07;;;;;;;88.15;33.13;;;2.60;99.90;;;;;;4981269;28;20121;-66
2021/12/06 07:28:33;;;;;;;83.18;34.00;;;2.60;99.90;;;;;;4981069;28;20058;-67
2021/12/06 07:30:59;;;;;;;83.53;32.30;;;2.50;99.90;;;;;;4998230;28;20061;-67
2021/12/06 07:33:29;;;;;;;99.13;32.85;;;2.60;99.90;;;;;;4981744;28;20051;-66
2021/12/06 07:35:54;;;;;;;80.45;31.65;;;2.60;99.90;;;;;;4981627;28;20046;-67
2021/12/06 07:38:20;;;;;;;102.07;32.47;;;2.60;99.90;;;;;;4981292;28;20129;-65
2021/12/06 07:40:49;;;;;;;93.85;33.50;;;2.60;99.90;;;;;;4998176;28;20057;-67
2021/12/06 07:43:16;;;;;;;77.07;31.00;;;2.60;99.90;;;;;;4980545;28;20113;-65
2021/12/06 07:45:41;;;;;;;88.35;30.98;;;2.60;99.90;;;;;;4997956;28;20061;-66
2021/12/06 07:48:07;;;;;;;84.43;30.67;;;2.70;99.90;;;;;;4981005;28;20034;-67
2021/12/06 07:50:33;;;;;;;88.57;32.22;;;2.70;99.90;;;;;;4997096;28;20049;-65
2021/12/06 07:52:59;;;;;;;91.82;32.05;;;2.60;99.90;;;;;;5000176;28;20046;-67
2021/12/06 07:55:27;;;;;;;82.45;30.35;;;2.70;99.90;;;;;;5017474;28;20292;-66
2021/12/06 07:57:56;;;;;;;93.55;32.78;;;2.70;99.90;;;;;;4999852;28;20068;-67
2021/12/06 08:00:23;;;;;;;90.57;32.90;;;2.90;99.90;;;;;;5017245;28;20045;-65
2021/12/06 08:02:49;;;;;;;82.68;31.77;;;2.70;99.90;;;;;;4999721;28;20514;-66
2021/12/06 08:05:31;;;;;;;84.90;31.20;;;2.70;99.90;;;;;;5017800;28;20042;-67
2021/12/06 08:08:07;;;;;;;79.55;29.45;;;2.80;99.90;;;;;;4999590;28;20124;-67
2021/12/06 08:10:36;;;;;;;84.88;33.47;;;2.70;99.90;;;;;;5017172;28;20454;-66
2021/12/06 08:13:03;;;;;;;86.10;31.25;;;2.70;99.90;;;;;;4999661;28;20112;-67
2021/12/06 08:15:29;;;;;;;88.95;32.13;;;2.70;99.90;;;;;;5016867;28;20095;-67
2021/12/06 08:17:55;;;;;;;84.55;31.58;;;2.70;99.90;;;;;;4999475;28;20053;-66
2021/12/06 08:20:21;;;;;;;93.05;33.35;;;2.70;99.90;;;;;;4981828;28;20046;-66
2021/12/06 08:22:47;;;;;;;89.85;32.28;;;2.70;99.90;;;;;;4997223;28;20046;-67
2021/12/06 08:25:14;;;;;;;84.88;32.08;;;2.70;99.90;;;;;;4979540;28;20379;-68
2021/12/06 08:27:40;;;;;;;85.70;29.92;;;2.70;99.90;;;;;;4997182;28;20058;-67
2021/12/06 08:30:08;;;;;;;79.35;32.38;;;2.70;99.90;;;;;;4963638;28;20081;-66
2021/12/06 08:32:33;;;;;;;98.50;31.52;;;2.70;99.90;;;;;;4997474;28;20050;-66
2021/12/06 08:34:59;;;;;;;90.28;32.03;;;2.80;99.90;;;;;;4980160;28;20076;-66
2021/12/06 08:37:26;;;;;;;84.65;30.95;;;2.80;99.90;;;;;;4979866;28;20057;-66
2021/12/06 08:39:52;;;;;;;75.95;29.77;;;2.80;99.90;;;;;;4996856;28;20054;-65
2021/12/06 08:42:18;;;;;;;77.13;30.52;;;2.80;99.90;;;;;;4980481;28;20125;-65
2021/12/06 08:44:44;;;;;;;74.63;28.08;;;2.90;99.90;;;;;;4979738;28;20046;-65
2021/12/06 08:47:09;;;;;;;64.22;27.98;;;2.90;99.90;;;;;;4980257;28;20047;-66
2021/12/06 08:49:35;;;;;;;76.50;29.15;;;2.90;99.90;;;;;;5006513;28;20061;-66
2021/12/06 08:52:02;;;;;;;62.17;24.88;;;3.00;99.90;;;;;;4984374;28;20054;-64
2021/12/06 08:54:29;;;;;;;59.55;27.20;;;3.00;99.90;;;;;;4980651;28;20064;-65
2021/12/06 08:57:00;;;;;;;61.53;25.95;;;3.00;99.90;;;;;;4996993;28;20129;-66
2021/12/06 08:59:25;;;;;;;59.67;25.30;;;3.00;99.90;;;;;;4979620;28;20103;-66
2021/12/06 09:01:54;;;;;;;57.83;26.42;;;3.00;99.90;;;;;;4979512;28;20062;-66
2021/12/06 09:04:20;;;;;;;59.40;26.35;;;2.90;99.90;;;;;;4978902;28;20046;-65
2021/12/06 09:06:50;;;;;;;64.57;27.98;;;2.90;99.90;;;;;;4996420;28;20046;-65
2021/12/06 09:09:16;;;;;;;59.95;26.63;;;2.90;99.90;;;;;;4978862;28;20049;-66
2021/12/06 09:11:44;;;;;;;58.92;25.30;;;3.00;99.90;;;;;;4979275;28;20413;-66
2021/12/06 09:14:10;;;;;;;56.33;25.95;;;3.00;99.90;;;;;;4996267;28;20050;-66
2021/12/06 09:16:37;;;;;;;64.30;27.88;;;3.00;99.90;;;;;;4979036;28;20100;-66
2021/12/06 09:19:05;;;;;;;57.70;26.20;;;3.00;99.90;;;;;;4985452;28;20057;-66
2021/12/06 09:21:32;;;;;;;61.50;25.85;;;3.10;99.90;;;;;;5015666;28;20370;-65
2021/12/06 09:24:00;;;;;;;61.25;25.95;;;3.10;99.90;;;;;;4976427;28;20061;-67
2021/12/06 09:26:30;;;;;;;58.42;25.92;;;3.20;99.90;;;;;;4995609;28;20038;-66
2021/12/06 09:28:57;;;;;;;52.88;25.20;;;3.20;99.90;;;;;;4995970;28;20448;-66
2021/12/06 09:31:23;;;;;;;53.53;23.90;;;3.30;99.90;;;;;;4996034;28;20050;-65
2021/12/06 09:33:49;;;;;;;43.05;21.95;;;3.30;99.90;;;;;;4993626;28;20054;-66
2021/12/06 09:36:15;;;;;;;56.85;23.00;;;3.30;99.90;;;;;;4982549;28;20054;-67
2021/12/06 09:38:42;;;;;;;51.25;24.13;;;3.20;99.90;;;;;;5015457;28;20463;-67
2021/12/06 09:41:19;;;;;;;48.97;20.35;;;3.20;99.90;;;;;;4998855;28;20060;-66
2021/12/06 09:43:44;;;;;;;49.22;23.25;;;3.30;99.90;;;;;;4997910;28;20042;-66
2021/12/06 09:46:11;;;;;;;46.70;22.55;;;3.30;99.90;;;;;;5015364;28;20054;-68
2021/12/06 09:48:39;;;;;;;48.17;22.60;;;3.20;99.90;;;;;;5015211;28;20062;-67
2021/12/06 09:51:10;;;;;;;48.60;22.60;;;3.30;99.90;;;;;;4998466;28;20350;-65
2021/12/06 09:53:38;;;;;;;53.42;24.58;;;3.20;99.90;;;;;;4998066;28;20049;-66
2021/12/06 09:56:08;;;;;;;50.75;22.92;;;3.30;99.90;;;;;;4997778;28;20077;-65
2021/12/06 09:58:34;;;;;;;47.35;24.08;;;3.40;99.90;;;;;;5015573;28;20375;-66
2021/12/06 10:01:06;;;;;;;48.83;23.23;;;3.50;99.90;;;;;;5015362;28;20069;-66
2021/12/06 10:03:33;;;;;;;46.20;22.08;;;3.60;99.90;;;;;;4985156;28;20050;-66
2021/12/06 10:06:02;;;;;;;39.33;20.38;;;3.50;99.90;;;;;;4978250;28;20451;-67
2021/12/06 10:08:30;;;;;;;46.17;23.13;;;3.50;99.90;;;;;;4978548;28;20479;-65
2021/12/06 10:10:56;;;;;;;43.03;22.13;;;3.40;99.90;;;;;;4962125;28;20057;-67
2021/12/06 10:13:22;;;;;;;43.28;20.70;;;3.30;99.90;;;;;;4977966;28;20046;-66
2021/12/06 10:15:48;;;;;;;46.97;21.83;;;3.30;99.90;;;;;;4979031;28;20081;-67
2021/12/06 10:18:16;;;;;;;50.25;22.10;;;3.20;99.90;;;;;;4978934;28;20112;-65
2021/12/06 10:20:43;;;;;;;46.13;22.63;;;3.30;99.90;;;;;;4978630;28;20057;-67
2021/12/06 10:23:10;;;;;;;42.55;22.05;;;3.30;99.90;;;;;;4995873;28;20458;-65
2021/12/06 10:25:41;;;;;;;46.80;22.45;;;3.30;99.90;;;;;;4997778;28;20433;-65
2021/12/06 10:28:07;;;;;;;44.20;21.55;;;3.40;99.90;;;;;;5014778;28;20053;-67
2021/12/06 10:30:39;;;;;;;42.85;22.98;;;3.40;99.90;;;;;;4997978;28;20041;-67
2021/12/06 10:33:09;;;;;;;43.63;22.05;;;3.40;99.90;;;;;;5015261;28;20129;-65
2021/12/06 10:35:38;;;;;;;47.95;23.17;;;3.40;99.90;;;;;;4997778;28;20065;-67
2021/12/06 10:38:04;;;;;;;46.88;21.98;;;3.40;99.90;;;;;;5010066;28;20038;-67
2021/12/06 10:40:34;;;;;;;42.05;22.70;;;3.40;99.90;;;;;;4994832;28;20370;-65
2021/12/06 10:43:04;;;;;;;49.10;22.98;;;3.40;99.90;;;;;;5018224;28;20363;-67
2021/12/06 10:45:31;;;;;;;49.78;22.60;;;3.40;99.90;;;;;;5018948;28;20108;-65
2021/12/06 10:48:13;;;;;;;48.17;23.40;;;3.40;99.90;;;;;;5019297;28;20045;-66
2021/12/06 10:50:46;;;;;;;46.83;24.27;;;3.40;99.90;;;;;;5018646;28;20053;-68
2021/12/06 10:53:13;;;;;;;59.60;29.08;;;3.40;99.90;;;;;;5018331;28;20442;-65
2021/12/06 10:55:41;;;;;;;55.45;27.80;;;3.40;99.90;;;;;;5001230;28;20049;-67
2021/12/06 10:58:11;;;;;;;62.33;26.88;;;3.40;99.90;;;;;;5018361;28;20053;-66
2021/12/06 11:00:48;;;;;;;57.92;28.63;;;3.40;99.90;;;;;;5001400;28;20049;-67
2021/12/06 11:03:47;;;;;;;63.85;31.88;;;3.40;99.90;;;;;;5001148;28;20041;-68
2021/12/06 11:06:21;;;;;;;66.78;32.38;;;3.50;99.90;;;;;;4997053;28;20505;-64
2021/12/06 11:08:50;;;;;;;61.75;31.02;;;3.50;99.90;;;;;;4990945;28;20042;-67
2021/12/06 11:11:26;;;;;;;58.78;28.17;;;3.50;99.90;;;;;;4998751;28;20109;-67
2021/12/06 11:14:00;;;;;;;51.83;26.55;;;3.50;99.90;;;;;;4999011;28;20047;-67
2021/12/06 11:16:31;;;;;;;61.33;27.17;;;3.50;99.90;;;;;;4998874;28;20046;-67
2021/12/06 11:19:06;;;;;;;51.88;25.63;;;3.50;99.90;;;;;;4981687;28;20046;-65
2021/12/06 11:21:52;;;;;;;49.90;24.60;;;3.50;99.90;;;;;;4998662;28;20116;-66
2021/12/06 11:24:29;;;;;;;44.75;22.88;;;3.50;99.90;;;;;;4980959;28;20046;-65
2021/12/06 11:27:05;;;;;;;47.45;23.95;;;3.50;99.90;;;;;;4998133;28;20042;-66
2021/12/06 11:29:41;;;;;;;51.10;23.67;;;3.50;99.90;;;;;;4998526;28;20169;-65
2021/12/06 11:32:10;;;;;;;44.80;22.17;;;3.50;99.90;;;;;;4981178;28;20478;-67
2021/12/06 11:34:43;;;;;;;43.60;21.38;;;3.60;99.90;;;;;;4980789;28;20053;-67
2021/12/06 11:37:15;;;;;;;47.17;23.00;;;3.50;99.90;;;;;;4980919;28;20050;-68
2021/12/06 11:39:42;;;;;;;42.28;22.88;;;3.60;99.90;;;;;;4997932;28;20077;-67
2021/12/06 11:42:08;;;;;;;41.88;20.50;;;3.60;99.90;;;;;;4998498;28;20046;-65
2021/12/06 11:44:38;;;;;;;38.05;21.08;;;3.60;99.90;;;;;;4981074;28;20058;-64
2021/12/06 11:47:12;;;;;;;42.45;21.83;;;3.60;99.90;;;;;;4980743;28;20046;-67
2021/12/06 11:49:41;;;;;;;39.17;20.90;;;3.60;99.90;;;;;;4997390;28;20352;-67
2021/12/06 11:52:11;;;;;;;39.35;21.35;;;3.70;99.90;;;;;;4980996;28;20433;-65
2021/12/06 11:54:45;;;;;;;34.00;20.02;;;3.60;99.90;;;;;;4981190;28;20081;-66
2021/12/06 11:57:16;;;;;;;39.33;19.45;;;3.60;99.90;;;;;;4980779;28;20129;-66
2021/12/06 11:59:57;;;;;;;40.15;20.25;;;3.60;99.90;;;;;;4980544;28;20060;-65
2021/12/06 12:02:40;;;;;;;36.80;20.88;;;3.70;99.90;;;;;;4980966;28;20108;-67
2021/12/06 12:05:31;;;;;;;35.55;20.17;;;3.60;99.90;;;;;;4997501;28;20124;-65
2021/12/06 12:07:59;;;;;;;38.40;20.98;;;3.60;99.90;;;;;;4986601;28;20112;-66
2021/12/06 12:10:36;;;;;;;37.65;20.27;;;3.70;99.90;;;;;;5014649;28;20359;-66
2021/12/06 12:13:03;;;;;;;36.75;21.15;;;3.70;99.90;;;;;;4997707;28;20057;-65
2021/12/06 12:15:28;;;;;;;37.75;20.38;;;3.80;99.90;;;;;;4980386;28;20085;-67
2021/12/06 12:17:54;;;;;;;36.33;19.98;;;3.80;99.90;;;;;;4980671;28;20422;-67
2021/12/06 12:20:24;;;;;;;36.65;21.17;;;3.80;99.90;;;;;;4997260;28;20471;-65
2021/12/06 12:22:51;;;;;;;42.33;21.83;;;3.80;99.90;;;;;;4997341;28;20043;-66
2021/12/06 12:25:30;;;;;;;39.58;21.40;;;3.80;99.90;;;;;;4997551;28;20120;-66
2021/12/06 12:28:19;;;;;;;39.20;21.73;;;3.90;99.90;;;;;;4980271;28;20054;-65
2021/12/06 12:30:47;;;;;;;37.53;21.65;;;3.90;99.90;;;;;;4997217;28;20050;-65
2021/12/06 12:33:13;;;;;;;38.40;21.02;;;4.00;99.90;;;;;;4997249;28;20054;-67
2021/12/06 12:35:44;;;;;;;37.58;21.25;;;4.00;99.90;;;;;;4998438;28;21391;-67
2021/12/06 12:38:11;;;;;;;46.25;23.10;;;4.00;99.90;;;;;;4979878;28;20188;-65
2021/12/06 12:40:48;;;;;;;41.38;22.48;;;4.00;99.90;;;;;;4996969;28;20119;-66
2021/12/06 12:43:18;;;;;;;43.92;21.63;;;4.00;99.90;;;;;;4979930;28;20057;-66
2021/12/06 12:45:49;;;;;;;42.80;21.58;;;4.50;99.90;;;;;;4979730;28;20069;-66
2021/12/06 12:48:20;;;;;;;40.25;21.42;;;4.10;99.90;;;;;;4980167;28;20121;-66
2021/12/06 12:51:07;;;;;;;40.85;20.98;;;4.10;99.90;;;;;;4979640;28;20054;-67
2021/12/06 12:53:59;;;;;;;40.00;22.10;;;4.20;99.90;;;;;;4979594;28;20050;-67
2021/12/06 12:56:28;;;;;;;41.70;21.63;;;4.20;99.90;;;;;;4979793;28;20081;-65